HEGNHEAX

Guest
Details From HEGN - HURGHADA INTL
To HEAX - ALEXANDRIA INTL
Flight Number -
Tags generated
Created
Modified
Stats Distance 334 nm / 618 km
Max Altitude 34,000 ft / 10,363 m
Waypoints 7
Social Downloads 0
Likes 0
Share VATSIM

Download

Looking for another format? Having issues loading an existing format? Contact us
Advertisement - Login to hide

Notes

Basic altitude profile: - Ascent Rate: 2500ft/min - Ascent Speed: 250kts - Cruise Altitude: 35000ft - Cruise Speed: 420kts - Descent Rate: 1500ft/min - Descent Speed: 250kts Options: - Use NATs: yes - Use PACOTS: yes - Use low airways: yes - Use high airways: yes

Route

HEGN HGD B418 SEMRU A727 CVO HEAX

ID Type Via Altitude Latitude Longitude Leg Dist Tot Dist Heading (true) Name
O HEGN APT - 0 ft / 0 m 27.17831˚ 33.79940˚ - 0 nm - HURGHADA INTL
HGD VOR - 0 ft / 0 m 27.17776˚ 33.79639˚ 0 nm 0 nm 258° / 258° HURGHADA VOR-DME
SEMRU FIX B418 (AWY-LO) 34,000 ft / 10,363 m 28.03361˚ 32.05167˚ 106 nm 106 nm 299° / 299° -
RASMI FIX A727 (AWY-HI) 34,000 ft / 10,363 m 28.98361˚ 31.75167˚ 59 nm 165 nm 345° / 344° -
SOLAM FIX A727 (AWY-HI) 26,500 ft / 8,077 m 29.70028˚ 31.51833˚ 44 nm 210 nm 344° / 344° -
CVO VOR A727 (AWY-HI) 20,200 ft / 6,157 m 30.09231˚ 31.38842˚ 24 nm 234 nm 344° / 344° CAIRO VOR-DME
O HEAX APT - 0 ft / 0 m 31.18372˚ 29.94760˚ 99 nm 333 nm 312° / 311° ALEXANDRIA INTL

Altitude Profile

Advertisement - Login to hide

Weather


0- 5 10 15 20 25 30 35+ Temperature / ° C

Clouds and Precipitation
Forecast for 2017-12-13 06:00 UTC. Updated 44 minutes ago

Ground ~20,000 ft ~40,000 ft Winds

HEGN

Details ICAO HEGN (HRG)
Name HURGHADA INTL
Region Egypt
Timezone Africa/Cairo (UTC+2.0)
Stats Elevation 52 ft / 16 m (AMSL)
Location 27.178308° 33.799397°
Runways 1
Magnetic Variation 4.211° E

METAR

HEGN 130100Z 31006KT CAVOK 16/05 Q1017 NOSIG

Decode

TAF

TAF HEGN 121700Z 1218/1324 32010KT CAVOK BECMG 1307/1309 36010G22KT ERR

Decode

Departure Runways

ID Width Length Bearing (true) Bearing (mag) Surface Threshold Offset Overrun Length
16 148 ft / 45 m 13,169 ft / 4,014 m 165.29° 161.08° Asphalt 985 ft / 300 m 0 ft / 0 m
34 148 ft / 45 m 13,169 ft / 4,014 m 345.29° 341.08° Asphalt 0 ft / 0 m 200 ft / 61 m

HEAX

Details ICAO HEAX (ALY)
Name ALEXANDRIA INTL
Region Egypt
Timezone Africa/Cairo (UTC+2.0)
Stats Elevation -6 ft / -2 m (AMSL)
Location 31.183715° 29.947602°
Runways 2
Magnetic Variation 4.420° E

METAR

HEAX 130100Z 35008KT 9999 FEW020 18/12 Q1020 NOSIG

Decode

TAF

TAF HEAX 122300Z 1300/1406 35012KT 9999 FEW020

Decode

Destination Runways

ID Width Length Bearing (true) Bearing (mag) Surface Threshold Offset Overrun Length
04 148 ft / 45 m 7,225 ft / 2,202 m 44.92° 40.50° Asphalt 0 ft / 0 m 230 ft / 70 m
18 98 ft / 30 m 5,927 ft / 1,807 m 179.99° 175.57° Asphalt 0 ft / 0 m 198 ft / 60 m
22 148 ft / 45 m 7,225 ft / 2,202 m 224.93° 220.51° Asphalt 0 ft / 0 m 268 ft / 82 m
36 98 ft / 30 m 5,927 ft / 1,807 m 359.99° 355.57° Asphalt 0 ft / 0 m 375 ft / 114 m